sensor_id;sensor_type;location;lat;lon;timestamp;P1;durP1;ratioP1;P2;durP2;ratioP2
69594;SDS011;56800;52.142;5.364;2022-08-01T00:00:36;6.38;;;4.20;;
69594;SDS011;56800;52.142;5.364;2022-08-01T00:03:04;5.32;;;4.13;;
69594;SDS011;56800;52.142;5.364;2022-08-01T00:05:30;8.25;;;4.47;;
69594;SDS011;56800;52.142;5.364;2022-08-01T00:07:58;6.13;;;4.53;;
69594;SDS011;56800;52.142;5.364;2022-08-01T00:10:25;9.63;;;4.43;;
69594;SDS011;56800;52.142;5.364;2022-08-01T00:12:52;9.27;;;4.00;;
69594;SDS011;56800;52.142;5.364;2022-08-01T00:15:18;6.30;;;4.13;;
69594;SDS011;56800;52.142;5.364;2022-08-01T00:17:45;8.93;;;5.10;;
69594;SDS011;56800;52.142;5.364;2022-08-01T00:20:13;10.30;;;4.55;;
69594;SDS011;56800;52.142;5.364;2022-08-01T00:22:40;7.25;;;4.43;;
69594;SDS011;56800;52.142;5.364;2022-08-01T00:25:07;8.82;;;4.05;;
69594;SDS011;56800;52.142;5.364;2022-08-01T00:27:33;9.68;;;4.82;;
69594;SDS011;56800;52.142;5.364;2022-08-01T00:30:03;8.48;;;4.95;;
69594;SDS011;56800;52.142;5.364;2022-08-01T00:32:39;8.20;;;4.55;;
69594;SDS011;56800;52.142;5.364;2022-08-01T00:35:07;7.47;;;4.72;;
69594;SDS011;56800;52.142;5.364;2022-08-01T00:37:34;7.03;;;4.82;;
69594;SDS011;56800;52.142;5.364;2022-08-01T00:40:01;7.53;;;4.82;;
69594;SDS011;56800;52.142;5.364;2022-08-01T00:42:27;9.18;;;5.00;;
69594;SDS011;56800;52.142;5.364;2022-08-01T00:44:54;11.55;;;5.75;;
69594;SDS011;56800;52.142;5.364;2022-08-01T00:47:21;10.38;;;5.50;;
69594;SDS011;56800;52.142;5.364;2022-08-01T00:49:47;10.38;;;5.60;;
69594;SDS011;56800;52.142;5.364;2022-08-01T00:52:14;13.32;;;5.35;;
69594;SDS011;56800;52.142;5.364;2022-08-01T00:54:41;10.05;;;6.00;;
69594;SDS011;56800;52.142;5.364;2022-08-01T00:57:08;9.95;;;5.85;;
69594;SDS011;56800;52.142;5.364;2022-08-01T00:59:36;10.97;;;6.60;;
69594;SDS011;56800;52.142;5.364;2022-08-01T01:02:05;11.68;;;5.97;;
69594;SDS011;56800;52.142;5.364;2022-08-01T01:04:41;12.07;;;6.53;;
69594;SDS011;56800;52.142;5.364;2022-08-01T01:12:31;11.10;;;6.27;;
69594;SDS011;56800;52.142;5.364;2022-08-01T01:26:45;15.60;;;6.97;;
69594;SDS011;56800;52.142;5.364;2022-08-01T01:31:59;11.80;;;6.93;;
69594;SDS011;56800;52.142;5.364;2022-08-01T01:34:33;14.48;;;7.25;;
69594;SDS011;56800;52.142;5.364;2022-08-01T01:37:02;11.25;;;6.65;;
69594;SDS011;56800;52.142;5.364;2022-08-01T01:39:32;14.60;;;6.80;;
69594;SDS011;56800;52.142;5.364;2022-08-01T01:42:01;12.27;;;7.03;;
69594;SDS011;56800;52.142;5.364;2022-08-01T01:44:31;15.82;;;7.53;;
69594;SDS011;56800;52.142;5.364;2022-08-01T01:46:58;12.15;;;7.30;;
69594;SDS011;56800;52.142;5.364;2022-08-01T01:49:27;11.98;;;7.25;;
69594;SDS011;56800;52.142;5.364;2022-08-01T01:51:56;15.57;;;7.10;;
69594;SDS011;56800;52.142;5.364;2022-08-01T01:54:28;11.30;;;7.30;;
69594;SDS011;56800;52.142;5.364;2022-08-01T01:57:00;12.80;;;7.75;;
69594;SDS011;56800;52.142;5.364;2022-08-01T01:59:29;16.02;;;7.72;;
69594;SDS011;56800;52.142;5.364;2022-08-01T02:01:59;13.82;;;7.18;;
69594;SDS011;56800;52.142;5.364;2022-08-01T02:04:31;12.20;;;6.82;;
69594;SDS011;56800;52.142;5.364;2022-08-01T02:07:01;17.88;;;7.03;;
69594;SDS011;56800;52.142;5.364;2022-08-01T02:09:29;12.02;;;6.97;;
69594;SDS011;56800;52.142;5.364;2022-08-01T02:11:57;12.52;;;7.00;;
69594;SDS011;56800;52.142;5.364;2022-08-01T02:14:34;12.50;;;6.47;;
69594;SDS011;56800;52.142;5.364;2022-08-01T02:17:01;13.10;;;7.63;;
69594;SDS011;56800;52.142;5.364;2022-08-01T02:19:30;14.13;;;6.95;;
69594;SDS011;56800;52.142;5.364;2022-08-01T02:22:10;13.18;;;6.70;;
69594;SDS011;56800;52.142;5.364;2022-08-01T02:24:43;11.82;;;7.10;;
69594;SDS011;56800;52.142;5.364;2022-08-01T02:27:12;13.20;;;6.28;;
69594;SDS011;56800;52.142;5.364;2022-08-01T02:29:42;11.70;;;6.77;;
69594;SDS011;56800;52.142;5.364;2022-08-01T02:32:18;14.02;;;7.30;;
69594;SDS011;56800;52.142;5.364;2022-08-01T02:34:50;15.38;;;6.70;;
69594;SDS011;56800;52.142;5.364;2022-08-01T02:37:18;14.02;;;7.20;;
69594;SDS011;56800;52.142;5.364;2022-08-01T02:39:47;15.43;;;7.57;;
69594;SDS011;56800;52.142;5.364;2022-08-01T02:42:18;12.48;;;7.30;;
69594;SDS011;56800;52.142;5.364;2022-08-01T02:44:46;12.20;;;7.13;;
69594;SDS011;56800;52.142;5.364;2022-08-01T02:47:15;12.30;;;6.85;;
69594;SDS011;56800;52.142;5.364;2022-08-01T02:49:46;12.07;;;7.90;;
69594;SDS011;56800;52.142;5.364;2022-08-01T02:52:20;14.65;;;8.20;;
69594;SDS011;56800;52.142;5.364;2022-08-01T02:54:49;12.80;;;7.57;;
69594;SDS011;56800;52.142;5.364;2022-08-01T02:57:19;15.07;;;8.00;;
69594;SDS011;56800;52.142;5.364;2022-08-01T02:59:50;16.27;;;7.82;;
69594;SDS011;56800;52.142;5.364;2022-08-01T03:02:21;13.25;;;8.10;;
69594;SDS011;56800;52.142;5.364;2022-08-01T03:04:49;13.77;;;8.15;;
69594;SDS011;56800;52.142;5.364;2022-08-01T03:07:22;12.57;;;7.80;;
69594;SDS011;56800;52.142;5.364;2022-08-01T03:09:59;14.20;;;7.63;;
69594;SDS011;56800;52.142;5.364;2022-08-01T03:12:27;13.13;;;7.68;;
69594;SDS011;56800;52.142;5.364;2022-08-01T03:14:57;11.98;;;8.00;;
69594;SDS011;56800;52.142;5.364;2022-08-01T03:17:26;16.30;;;8.10;;
69594;SDS011;56800;52.142;5.364;2022-08-01T03:19:56;14.33;;;8.47;;
69594;SDS011;56800;52.142;5.364;2022-08-01T03:22:24;13.60;;;7.32;;
69594;SDS011;56800;52.142;5.364;2022-08-01T03:24:54;13.88;;;8.43;;
69594;SDS011;56800;52.142;5.364;2022-08-01T03:27:25;16.08;;;8.43;;
69594;SDS011;56800;52.142;5.364;2022-08-01T03:29:52;13.43;;;6.80;;
69594;SDS011;56800;52.142;5.364;2022-08-01T03:32:22;13.23;;;7.57;;
69594;SDS011;56800;52.142;5.364;2022-08-01T03:34:49;11.20;;;7.15;;
69594;SDS011;56800;52.142;5.364;2022-08-01T03:37:26;14.40;;;7.32;;
69594;SDS011;56800;52.142;5.364;2022-08-01T03:42:37;11.20;;;6.85;;
69594;SDS011;56800;52.142;5.364;2022-08-01T03:45:14;12.60;;;7.43;;
69594;SDS011;56800;52.142;5.364;2022-08-01T03:47:45;11.43;;;7.10;;
69594;SDS011;56800;52.142;5.364;2022-08-01T03:50:17;11.57;;;6.50;;
69594;SDS011;56800;52.142;5.364;2022-08-01T03:52:47;12.52;;;7.18;;
69594;SDS011;56800;52.142;5.364;2022-08-01T03:55:16;13.77;;;7.20;;
69594;SDS011;56800;52.142;5.364;2022-08-01T03:57:45;11.60;;;7.10;;
69594;SDS011;56800;52.142;5.364;2022-08-01T04:00:14;13.70;;;7.30;;
69594;SDS011;56800;52.142;5.364;2022-08-01T04:02:47;12.55;;;7.25;;
69594;SDS011;56800;52.142;5.364;2022-08-01T04:05:15;10.13;;;6.78;;
69594;SDS011;56800;52.142;5.364;2022-08-01T04:07:46;13.05;;;6.90;;
69594;SDS011;56800;52.142;5.364;2022-08-01T04:10:16;11.70;;;7.30;;
69594;SDS011;56800;52.142;5.364;2022-08-01T04:12:43;12.85;;;7.38;;
69594;SDS011;56800;52.142;5.364;2022-08-01T04:15:09;11.70;;;6.95;;
69594;SDS011;56800;52.142;5.364;2022-08-01T04:17:36;11.43;;;7.38;;
69594;SDS011;56800;52.142;5.364;2022-08-01T04:20:03;13.95;;;7.32;;
69594;SDS011;56800;52.142;5.364;2022-08-01T04:22:30;14.93;;;7.13;;
69594;SDS011;56800;52.142;5.364;2022-08-01T04:25:03;12.63;;;7.05;;
69594;SDS011;56800;52.142;5.364;2022-08-01T04:27:36;13.15;;;7.53;;
69594;SDS011;56800;52.142;5.364;2022-08-01T04:30:17;11.93;;;7.63;;
69594;SDS011;56800;52.142;5.364;2022-08-01T04:32:48;10.75;;;6.88;;
69594;SDS011;56800;52.142;5.364;2022-08-01T04:35:16;11.73;;;6.87;;
69594;SDS011;56800;52.142;5.364;2022-08-01T04:38:06;13.27;;;7.35;;
69594;SDS011;56800;52.142;5.364;2022-08-01T04:40:35;12.98;;;7.65;;
69594;SDS011;56800;52.142;5.364;2022-08-01T04:43:03;10.43;;;6.20;;
69594;SDS011;56800;52.142;5.364;2022-08-01T04:45:30;9.40;;;5.53;;
69594;SDS011;56800;52.142;5.364;2022-08-01T04:47:58;6.83;;;4.20;;
69594;SDS011;56800;52.142;5.364;2022-08-01T04:50:26;6.28;;;3.85;;
69594;SDS011;56800;52.142;5.364;2022-08-01T04:52:53;7.75;;;4.15;;
69594;SDS011;56800;52.142;5.364;2022-08-01T04:55:20;7.85;;;4.35;;
69594;SDS011;56800;52.142;5.364;2022-08-01T04:57:47;7.25;;;4.40;;
69594;SDS011;56800;52.142;5.364;2022-08-01T05:00:14;6.37;;;3.90;;
69594;SDS011;56800;52.142;5.364;2022-08-01T05:02:42;5.90;;;3.53;;
69594;SDS011;56800;52.142;5.364;2022-08-01T05:05:09;12.15;;;4.45;;
69594;SDS011;56800;52.142;5.364;2022-08-01T05:07:38;6.70;;;4.03;;
69594;SDS011;56800;52.142;5.364;2022-08-01T05:10:11;9.23;;;4.13;;
69594;SDS011;56800;52.142;5.364;2022-08-01T05:12:39;6.63;;;3.43;;
69594;SDS011;56800;52.142;5.364;2022-08-01T05:15:06;4.63;;;3.60;;
69594;SDS011;56800;52.142;5.364;2022-08-01T05:17:40;7.65;;;3.50;;
69594;SDS011;56800;52.142;5.364;2022-08-01T05:20:08;7.07;;;3.47;;
69594;SDS011;56800;52.142;5.364;2022-08-01T05:22:36;7.93;;;3.72;;
69594;SDS011;56800;52.142;5.364;2022-08-01T05:25:04;6.47;;;3.80;;
69594;SDS011;56800;52.142;5.364;2022-08-01T05:27:31;10.73;;;4.22;;
69594;SDS011;56800;52.142;5.364;2022-08-01T05:29:59;12.93;;;4.07;;
69594;SDS011;56800;52.142;5.364;2022-08-01T05:32:25;11.20;;;3.90;;
69594;SDS011;56800;52.142;5.364;2022-08-01T05:34:53;10.32;;;4.13;;
69594;SDS011;56800;52.142;5.364;2022-08-01T05:37:20;6.47;;;3.50;;
69594;SDS011;56800;52.142;5.364;2022-08-01T05:39:46;12.27;;;4.15;;
69594;SDS011;56800;52.142;5.364;2022-08-01T05:42:13;6.45;;;3.67;;
69594;SDS011;56800;52.142;5.364;2022-08-01T05:44:40;6.50;;;3.40;;
69594;SDS011;56800;52.142;5.364;2022-08-01T05:47:06;5.22;;;3.00;;
69594;SDS011;56800;52.142;5.364;2022-08-01T05:49:33;5.57;;;2.83;;
69594;SDS011;56800;52.142;5.364;2022-08-01T05:52:06;4.18;;;2.40;;
69594;SDS011;56800;52.142;5.364;2022-08-01T05:59:59;7.00;;;3.10;;
69594;SDS011;56800;52.142;5.364;2022-08-01T06:39:02;4.30;;;2.55;;
69594;SDS011;56800;52.142;5.364;2022-08-01T06:50:57;7.90;;;2.33;;
69594;SDS011;56800;52.142;5.364;2022-08-01T07:38:11;6.03;;;2.95;;
69594;SDS011;56800;52.142;5.364;2022-08-01T07:40:49;17.00;;;3.53;;
69594;SDS011;56800;52.142;5.364;2022-08-01T07:43:18;19.53;;;4.10;;
69594;SDS011;56800;52.142;5.364;2022-08-01T07:46:34;22.08;;;4.60;;
69594;SDS011;56800;52.142;5.364;2022-08-01T07:49:51;18.02;;;4.90;;
69594;SDS011;56800;52.142;5.364;2022-08-01T07:53:01;18.63;;;4.20;;
69594;SDS011;56800;52.142;5.364;2022-08-01T07:57:15;18.92;;;4.57;;
69594;SDS011;56800;52.142;5.364;2022-08-01T08:00:40;19.50;;;4.70;;
69594;SDS011;56800;52.142;5.364;2022-08-01T08:04:29;17.98;;;3.80;;
69594;SDS011;56800;52.142;5.364;2022-08-01T08:08:23;23.23;;;4.28;;
69594;SDS011;56800;52.142;5.364;2022-08-01T08:11:43;22.60;;;4.55;;
69594;SDS011;56800;52.142;5.364;2022-08-01T08:15:12;21.90;;;4.60;;
69594;SDS011;56800;52.142;5.364;2022-08-01T08:18:28;21.00;;;5.80;;
69594;SDS011;56800;52.142;5.364;2022-08-01T08:22:04;23.80;;;5.60;;
69594;SDS011;56800;52.142;5.364;2022-08-01T08:25:42;17.63;;;4.95;;
69594;SDS011;56800;52.142;5.364;2022-08-01T08:28:57;18.85;;;4.82;;
69594;SDS011;56800;52.142;5.364;2022-08-01T08:32:43;17.52;;;4.57;;
69594;SDS011;56800;52.142;5.364;2022-08-01T08:36:10;13.17;;;3.93;;
69594;SDS011;56800;52.142;5.364;2022-08-01T08:40:05;22.67;;;4.53;;
69594;SDS011;56800;52.142;5.364;2022-08-01T08:43:31;19.90;;;4.10;;
69594;SDS011;56800;52.142;5.364;2022-08-01T08:47:10;21.70;;;3.88;;
69594;SDS011;56800;52.142;5.364;2022-08-01T08:50:25;13.35;;;3.50;;
69594;SDS011;56800;52.142;5.364;2022-08-01T08:53:21;10.43;;;3.40;;
69594;SDS011;56800;52.142;5.364;2022-08-01T08:56:19;13.35;;;4.22;;
69594;SDS011;56800;52.142;5.364;2022-08-01T08:59:35;13.45;;;3.60;;
69594;SDS011;56800;52.142;5.364;2022-08-01T09:02:49;18.27;;;3.70;;
69594;SDS011;56800;52.142;5.364;2022-08-01T09:09:43;18.37;;;3.70;;
69594;SDS011;56800;52.142;5.364;2022-08-01T09:17:44;14.80;;;3.58;;
69594;SDS011;56800;52.142;5.364;2022-08-01T09:21:33;14.98;;;3.63;;
69594;SDS011;56800;52.142;5.364;2022-08-01T09:25:30;13.20;;;3.30;;
69594;SDS011;56800;52.142;5.364;2022-08-01T09:29:18;15.50;;;3.60;;
69594;SDS011;56800;52.142;5.364;2022-08-01T09:33:11;14.57;;;3.33;;
69594;SDS011;56800;52.142;5.364;2022-08-01T09:35:58;12.13;;;3.25;;
69594;SDS011;56800;52.142;5.364;2022-08-01T09:39:17;14.13;;;3.13;;
69594;SDS011;56800;52.142;5.364;2022-08-01T09:46:17;11.60;;;2.70;;
69594;SDS011;56800;52.142;5.364;2022-08-01T10:13:08;9.40;;;3.00;;
69594;SDS011;56800;52.142;5.364;2022-08-01T10:16:58;13.02;;;3.20;;
69594;SDS011;56800;52.142;5.364;2022-08-01T10:24:34;15.23;;;2.50;;
69594;SDS011;56800;52.142;5.364;2022-08-01T10:48:07;10.27;;;2.85;;
69594;SDS011;56800;52.142;5.364;2022-08-01T11:15:47;15.25;;;3.90;;
69594;SDS011;56800;52.142;5.364;2022-08-01T11:27:28;10.38;;;3.20;;
69594;SDS011;56800;52.142;5.364;2022-08-01T11:31:54;11.00;;;2.97;;
69594;SDS011;56800;52.142;5.364;2022-08-01T11:39:27;13.30;;;2.42;;
69594;SDS011;56800;52.142;5.364;2022-08-01T11:47:15;8.02;;;2.15;;
69594;SDS011;56800;52.142;5.364;2022-08-01T11:50:39;11.85;;;2.38;;
69594;SDS011;56800;52.142;5.364;2022-08-01T11:53:07;7.55;;;2.60;;
69594;SDS011;56800;52.142;5.364;2022-08-01T11:55:36;7.78;;;2.40;;
69594;SDS011;56800;52.142;5.364;2022-08-01T11:58:04;11.57;;;2.45;;
69594;SDS011;56800;52.142;5.364;2022-08-01T12:00:34;9.52;;;1.75;;
69594;SDS011;56800;52.142;5.364;2022-08-01T12:03:02;9.75;;;2.15;;
69594;SDS011;56800;52.142;5.364;2022-08-01T12:05:33;8.45;;;2.35;;
69594;SDS011;56800;52.142;5.364;2022-08-01T12:08:08;7.25;;;2.03;;
69594;SDS011;56800;52.142;5.364;2022-08-01T12:10:35;10.00;;;2.47;;
69594;SDS011;56800;52.142;5.364;2022-08-01T12:13:15;11.07;;;2.55;;
69594;SDS011;56800;52.142;5.364;2022-08-01T12:15:41;6.68;;;2.30;;
69594;SDS011;56800;52.142;5.364;2022-08-01T12:18:09;7.90;;;2.70;;
69594;SDS011;56800;52.142;5.364;2022-08-01T12:20:37;9.35;;;1.80;;
69594;SDS011;56800;52.142;5.364;2022-08-01T12:23:15;8.43;;;2.03;;
69594;SDS011;56800;52.142;5.364;2022-08-01T12:25:42;7.22;;;2.08;;
69594;SDS011;56800;52.142;5.364;2022-08-01T12:28:10;6.32;;;1.80;;
69594;SDS011;56800;52.142;5.364;2022-08-01T12:30:39;5.97;;;2.08;;
69594;SDS011;56800;52.142;5.364;2022-08-01T12:33:08;6.63;;;1.85;;
69594;SDS011;56800;52.142;5.364;2022-08-01T12:35:36;9.60;;;2.30;;
69594;SDS011;56800;52.142;5.364;2022-08-01T12:38:07;5.40;;;2.00;;
69594;SDS011;56800;52.142;5.364;2022-08-01T12:40:41;7.30;;;1.90;;
69594;SDS011;56800;52.142;5.364;2022-08-01T12:43:15;7.40;;;1.83;;
69594;SDS011;56800;52.142;5.364;2022-08-01T12:45:54;6.93;;;2.00;;
69594;SDS011;56800;52.142;5.364;2022-08-01T12:48:26;6.05;;;1.70;;
69594;SDS011;56800;52.142;5.364;2022-08-01T12:50:53;5.97;;;2.00;;
69594;SDS011;56800;52.142;5.364;2022-08-01T12:53:23;8.82;;;1.83;;
69594;SDS011;56800;52.142;5.364;2022-08-01T12:55:53;5.13;;;1.85;;
69594;SDS011;56800;52.142;5.364;2022-08-01T12:58:31;4.07;;;1.92;;
69594;SDS011;56800;52.142;5.364;2022-08-01T13:01:05;5.95;;;2.30;;
69594;SDS011;56800;52.142;5.364;2022-08-01T13:03:36;4.57;;;2.03;;
69594;SDS011;56800;52.142;5.364;2022-08-01T13:06:13;9.45;;;1.90;;
69594;SDS011;56800;52.142;5.364;2022-08-01T13:08:43;10.43;;;2.20;;
69594;SDS011;56800;52.142;5.364;2022-08-01T13:11:12;4.47;;;1.70;;
69594;SDS011;56800;52.142;5.364;2022-08-01T13:13:47;5.88;;;2.10;;
69594;SDS011;56800;52.142;5.364;2022-08-01T13:16:19;5.88;;;2.22;;
69594;SDS011;56800;52.142;5.364;2022-08-01T13:19:03;7.22;;;2.40;;
69594;SDS011;56800;52.142;5.364;2022-08-01T13:21:31;5.95;;;2.08;;
69594;SDS011;56800;52.142;5.364;2022-08-01T13:24:22;5.03;;;1.58;;
69594;SDS011;56800;52.142;5.364;2022-08-01T13:26:54;7.22;;;2.17;;
69594;SDS011;56800;52.142;5.364;2022-08-01T13:29:29;6.88;;;2.67;;
69594;SDS011;56800;52.142;5.364;2022-08-01T13:35:08;4.78;;;2.45;;
69594;SDS011;56800;52.142;5.364;2022-08-01T13:37:39;5.22;;;2.20;;
69594;SDS011;56800;52.142;5.364;2022-08-01T13:40:08;7.28;;;1.88;;
69594;SDS011;56800;52.142;5.364;2022-08-01T13:42:36;6.20;;;2.58;;
69594;SDS011;56800;52.142;5.364;2022-08-01T13:45:04;3.50;;;2.03;;
69594;SDS011;56800;52.142;5.364;2022-08-01T13:47:39;4.68;;;1.80;;
69594;SDS011;56800;52.142;5.364;2022-08-01T13:50:27;5.50;;;2.00;;
69594;SDS011;56800;52.142;5.364;2022-08-01T13:52:54;4.38;;;2.00;;
69594;SDS011;56800;52.142;5.364;2022-08-01T13:55:20;5.28;;;2.33;;
69594;SDS011;56800;52.142;5.364;2022-08-01T13:57:47;6.35;;;2.60;;
69594;SDS011;56800;52.142;5.364;2022-08-01T14:00:14;4.68;;;2.00;;
69594;SDS011;56800;52.142;5.364;2022-08-01T14:02:41;4.47;;;2.00;;
69594;SDS011;56800;52.142;5.364;2022-08-01T14:05:08;5.28;;;2.00;;
69594;SDS011;56800;52.142;5.364;2022-08-01T14:07:34;3.28;;;2.03;;
69594;SDS011;56800;52.142;5.364;2022-08-01T14:10:03;5.28;;;2.20;;
69594;SDS011;56800;52.142;5.364;2022-08-01T14:12:45;5.43;;;2.67;;
69594;SDS011;56800;52.142;5.364;2022-08-01T14:15:12;5.07;;;2.53;;
69594;SDS011;56800;52.142;5.364;2022-08-01T14:17:50;5.78;;;2.22;;
69594;SDS011;56800;52.142;5.364;2022-08-01T14:20:17;4.53;;;2.28;;
69594;SDS011;56800;52.142;5.364;2022-08-01T14:22:46;5.85;;;1.83;;
69594;SDS011;56800;52.142;5.364;2022-08-01T14:25:12;5.35;;;2.75;;
69594;SDS011;56800;52.142;5.364;2022-08-01T14:27:59;9.30;;;3.50;;
69594;SDS011;56800;52.142;5.364;2022-08-01T14:30:26;5.57;;;1.90;;
69594;SDS011;56800;52.142;5.364;2022-08-01T14:32:52;4.32;;;1.83;;
69594;SDS011;56800;52.142;5.364;2022-08-01T14:35:19;6.13;;;2.33;;
69594;SDS011;56800;52.142;5.364;2022-08-01T14:37:46;7.68;;;2.53;;
69594;SDS011;56800;52.142;5.364;2022-08-01T14:40:13;3.70;;;2.38;;
69594;SDS011;56800;52.142;5.364;2022-08-01T14:42:44;6.35;;;2.20;;
69594;SDS011;56800;52.142;5.364;2022-08-01T14:45:12;4.38;;;2.70;;
69594;SDS011;56800;52.142;5.364;2022-08-01T14:47:40;6.25;;;2.65;;
69594;SDS011;56800;52.142;5.364;2022-08-01T14:50:09;6.15;;;3.05;;
69594;SDS011;56800;52.142;5.364;2022-08-01T14:52:38;6.82;;;2.60;;
69594;SDS011;56800;52.142;5.364;2022-08-01T14:55:08;6.78;;;2.67;;
69594;SDS011;56800;52.142;5.364;2022-08-01T14:57:37;5.80;;;2.53;;
69594;SDS011;56800;52.142;5.364;2022-08-01T15:00:06;6.60;;;2.42;;
69594;SDS011;56800;52.142;5.364;2022-08-01T15:02:39;4.53;;;2.35;;
69594;SDS011;56800;52.142;5.364;2022-08-01T15:05:06;6.35;;;2.10;;
69594;SDS011;56800;52.142;5.364;2022-08-01T15:07:33;3.97;;;1.75;;
69594;SDS011;56800;52.142;5.364;2022-08-01T15:10:08;5.63;;;2.45;;
69594;SDS011;56800;52.142;5.364;2022-08-01T15:12:35;4.22;;;2.15;;
69594;SDS011;56800;52.142;5.364;2022-08-01T15:15:15;6.22;;;2.28;;
69594;SDS011;56800;52.142;5.364;2022-08-01T15:17:42;6.97;;;2.83;;
69594;SDS011;56800;52.142;5.364;2022-08-01T15:20:09;5.10;;;2.80;;
69594;SDS011;56800;52.142;5.364;2022-08-01T15:22:36;3.90;;;1.65;;
69594;SDS011;56800;52.142;5.364;2022-08-01T15:25:03;4.10;;;1.73;;
69594;SDS011;56800;52.142;5.364;2022-08-01T15:27:30;7.45;;;1.98;;
69594;SDS011;56800;52.142;5.364;2022-08-01T15:29:56;6.63;;;2.00;;
69594;SDS011;56800;52.142;5.364;2022-08-01T15:32:23;12.68;;;2.22;;
69594;SDS011;56800;52.142;5.364;2022-08-01T15:34:50;4.25;;;1.88;;
69594;SDS011;56800;52.142;5.364;2022-08-01T15:37:17;7.22;;;2.72;;
69594;SDS011;56800;52.142;5.364;2022-08-01T15:39:46;5.47;;;1.90;;
69594;SDS011;56800;52.142;5.364;2022-08-01T15:42:14;6.78;;;2.00;;
69594;SDS011;56800;52.142;5.364;2022-08-01T15:44:52;5.38;;;2.42;;
69594;SDS011;56800;52.142;5.364;2022-08-01T15:47:19;4.43;;;1.83;;
69594;SDS011;56800;52.142;5.364;2022-08-01T15:49:47;6.22;;;2.30;;
69594;SDS011;56800;52.142;5.364;2022-08-01T15:52:17;5.15;;;1.92;;
69594;SDS011;56800;52.142;5.364;2022-08-01T15:54:47;5.18;;;1.95;;
69594;SDS011;56800;52.142;5.364;2022-08-01T15:57:14;3.92;;;2.58;;
69594;SDS011;56800;52.142;5.364;2022-08-01T15:59:41;4.03;;;2.00;;
69594;SDS011;56800;52.142;5.364;2022-08-01T16:02:08;8.00;;;2.83;;
69594;SDS011;56800;52.142;5.364;2022-08-01T16:04:36;6.93;;;2.47;;
69594;SDS011;56800;52.142;5.364;2022-08-01T16:07:04;5.13;;;2.40;;
69594;SDS011;56800;52.142;5.364;2022-08-01T16:09:31;6.53;;;2.33;;
69594;SDS011;56800;52.142;5.364;2022-08-01T16:11:57;5.28;;;1.85;;
69594;SDS011;56800;52.142;5.364;2022-08-01T16:14:24;4.07;;;1.88;;
69594;SDS011;56800;52.142;5.364;2022-08-01T16:16:51;4.60;;;2.45;;
69594;SDS011;56800;52.142;5.364;2022-08-01T16:19:20;4.63;;;2.13;;
69594;SDS011;56800;52.142;5.364;2022-08-01T16:21:47;6.70;;;3.35;;
69594;SDS011;56800;52.142;5.364;2022-08-01T16:24:14;5.00;;;2.22;;
69594;SDS011;56800;52.142;5.364;2022-08-01T16:26:40;5.43;;;1.95;;
69594;SDS011;56800;52.142;5.364;2022-08-01T16:29:08;5.38;;;2.33;;
69594;SDS011;56800;52.142;5.364;2022-08-01T16:31:34;8.68;;;2.92;;
69594;SDS011;56800;52.142;5.364;2022-08-01T16:34:16;7.35;;;2.38;;
69594;SDS011;56800;52.142;5.364;2022-08-01T16:36:46;8.80;;;2.22;;
69594;SDS011;56800;52.142;5.364;2022-08-01T16:39:15;8.40;;;2.10;;
69594;SDS011;56800;52.142;5.364;2022-08-01T16:41:48;5.68;;;2.13;;
69594;SDS011;56800;52.142;5.364;2022-08-01T16:44:20;7.82;;;2.75;;
69594;SDS011;56800;52.142;5.364;2022-08-01T16:46:59;6.70;;;2.17;;
69594;SDS011;56800;52.142;5.364;2022-08-01T16:49:27;5.22;;;2.33;;
69594;SDS011;56800;52.142;5.364;2022-08-01T16:51:54;5.88;;;2.58;;
69594;SDS011;56800;52.142;5.364;2022-08-01T16:54:20;8.07;;;2.05;;
69594;SDS011;56800;52.142;5.364;2022-08-01T16:56:51;11.40;;;2.40;;
69594;SDS011;56800;52.142;5.364;2022-08-01T16:59:18;7.82;;;2.92;;
69594;SDS011;56800;52.142;5.364;2022-08-01T17:01:45;6.10;;;1.77;;
69594;SDS011;56800;52.142;5.364;2022-08-01T17:04:26;4.13;;;2.15;;
69594;SDS011;56800;52.142;5.364;2022-08-01T17:06:53;7.13;;;2.08;;
69594;SDS011;56800;52.142;5.364;2022-08-01T17:09:20;4.93;;;2.22;;
69594;SDS011;56800;52.142;5.364;2022-08-01T17:11:51;6.70;;;1.98;;
69594;SDS011;56800;52.142;5.364;2022-08-01T17:14:20;3.75;;;1.73;;
69594;SDS011;56800;52.142;5.364;2022-08-01T17:16:49;8.57;;;2.35;;
69594;SDS011;56800;52.142;5.364;2022-08-01T17:19:16;6.97;;;2.88;;
69594;SDS011;56800;52.142;5.364;2022-08-01T17:21:43;5.10;;;2.67;;
69594;SDS011;56800;52.142;5.364;2022-08-01T17:24:09;6.50;;;2.00;;
69594;SDS011;56800;52.142;5.364;2022-08-01T17:26:41;6.50;;;1.90;;
69594;SDS011;56800;52.142;5.364;2022-08-01T17:29:08;6.15;;;2.03;;
69594;SDS011;56800;52.142;5.364;2022-08-01T17:31:35;8.63;;;2.72;;
69594;SDS011;56800;52.142;5.364;2022-08-01T17:34:01;9.00;;;2.47;;
69594;SDS011;56800;52.142;5.364;2022-08-01T17:36:28;7.03;;;2.40;;
69594;SDS011;56800;52.142;5.364;2022-08-01T17:38:57;5.50;;;2.42;;
69594;SDS011;56800;52.142;5.364;2022-08-01T17:41:24;5.90;;;2.65;;
69594;SDS011;56800;52.142;5.364;2022-08-01T17:43:51;4.78;;;2.35;;
69594;SDS011;56800;52.142;5.364;2022-08-01T17:46:18;4.63;;;2.13;;
69594;SDS011;56800;52.142;5.364;2022-08-01T17:48:45;7.80;;;2.35;;
69594;SDS011;56800;52.142;5.364;2022-08-01T17:51:12;5.22;;;1.88;;
69594;SDS011;56800;52.142;5.364;2022-08-01T17:53:38;6.13;;;2.20;;
69594;SDS011;56800;52.142;5.364;2022-08-01T17:56:22;5.88;;;2.17;;
69594;SDS011;56800;52.142;5.364;2022-08-01T17:58:52;7.70;;;2.17;;
69594;SDS011;56800;52.142;5.364;2022-08-01T18:01:22;5.78;;;1.75;;
69594;SDS011;56800;52.142;5.364;2022-08-01T18:03:52;6.20;;;2.40;;
69594;SDS011;56800;52.142;5.364;2022-08-01T18:06:18;6.90;;;1.92;;
69594;SDS011;56800;52.142;5.364;2022-08-01T18:08:49;6.72;;;2.38;;
69594;SDS011;56800;52.142;5.364;2022-08-01T18:11:21;7.50;;;2.65;;
69594;SDS011;56800;52.142;5.364;2022-08-01T18:13:52;6.90;;;2.20;;
69594;SDS011;56800;52.142;5.364;2022-08-01T18:16:18;5.35;;;2.03;;
69594;SDS011;56800;52.142;5.364;2022-08-01T18:18:45;10.10;;;2.90;;
69594;SDS011;56800;52.142;5.364;2022-08-01T18:21:12;7.05;;;2.25;;
69594;SDS011;56800;52.142;5.364;2022-08-01T18:23:39;5.53;;;1.95;;
69594;SDS011;56800;52.142;5.364;2022-08-01T18:26:16;8.40;;;2.00;;
69594;SDS011;56800;52.142;5.364;2022-08-01T18:28:43;7.95;;;1.88;;
69594;SDS011;56800;52.142;5.364;2022-08-01T18:31:12;8.02;;;1.95;;
69594;SDS011;56800;52.142;5.364;2022-08-01T18:33:41;6.72;;;2.22;;
69594;SDS011;56800;52.142;5.364;2022-08-01T18:36:08;8.85;;;2.25;;
69594;SDS011;56800;52.142;5.364;2022-08-01T18:38:55;12.07;;;1.80;;
69594;SDS011;56800;52.142;5.364;2022-08-01T18:41:22;6.18;;;1.85;;
69594;SDS011;56800;52.142;5.364;2022-08-01T18:43:49;5.88;;;1.73;;
69594;SDS011;56800;52.142;5.364;2022-08-01T18:46:16;7.90;;;2.00;;
69594;SDS011;56800;52.142;5.364;2022-08-01T18:48:45;6.32;;;1.80;;
69594;SDS011;56800;52.142;5.364;2022-08-01T18:51:13;6.07;;;2.22;;
69594;SDS011;56800;52.142;5.364;2022-08-01T18:53:40;4.93;;;2.00;;
69594;SDS011;56800;52.142;5.364;2022-08-01T18:56:12;6.50;;;1.90;;
69594;SDS011;56800;52.142;5.364;2022-08-01T18:58:39;7.63;;;2.10;;
69594;SDS011;56800;52.142;5.364;2022-08-01T19:01:07;6.15;;;2.00;;
69594;SDS011;56800;52.142;5.364;2022-08-01T19:03:36;8.98;;;2.53;;
69594;SDS011;56800;52.142;5.364;2022-08-01T19:06:07;6.68;;;2.05;;
69594;SDS011;56800;52.142;5.364;2022-08-01T19:08:35;6.00;;;1.65;;
69594;SDS011;56800;52.142;5.364;2022-08-01T19:11:03;7.38;;;2.15;;
69594;SDS011;56800;52.142;5.364;2022-08-01T19:13:30;7.68;;;1.75;;
69594;SDS011;56800;52.142;5.364;2022-08-01T19:15:58;7.20;;;1.70;;
69594;SDS011;56800;52.142;5.364;2022-08-01T19:18:25;8.60;;;2.00;;
69594;SDS011;56800;52.142;5.364;2022-08-01T19:20:52;7.38;;;1.60;;